CPX657 Details

Departure: Southwest Florida International Airport (KRSW)
Arrival: Miami International Airport (KMIA) at N/A
Route: CYY CYY9
Notes:


Current Weather Information
KRSW 191553Z 10009KT 10SM SCT025 32/24 A3009 RMK AO2 SLP185 T03170244
KMIA 191553Z 10011KT 10SM SCT035 BKN200 32/22 A3007 RMK AO2 SLP184 T03170222